sensor_id;sensor_type;location;lat;lon;timestamp;P1;durP1;ratioP1;P2;durP2;ratioP2
3845;SDS011;1938;50.812;7.738;2022-10-16T00:01:26;8.50;;;4.83;;
3845;SDS011;1938;50.812;7.738;2022-10-16T00:03:53;7.67;;;4.13;;
3845;SDS011;1938;50.812;7.738;2022-10-16T00:06:20;5.40;;;4.00;;
3845;SDS011;1938;50.812;7.738;2022-10-16T00:08:47;5.70;;;3.90;;
3845;SDS011;1938;50.812;7.738;2022-10-16T00:11:15;8.17;;;4.40;;
3845;SDS011;1938;50.812;7.738;2022-10-16T00:13:43;9.13;;;4.90;;
3845;SDS011;1938;50.812;7.738;2022-10-16T00:16:10;7.33;;;4.27;;
3845;SDS011;1938;50.812;7.738;2022-10-16T00:18:37;9.07;;;4.30;;
3845;SDS011;1938;50.812;7.738;2022-10-16T00:21:07;8.67;;;4.50;;
3845;SDS011;1938;50.812;7.738;2022-10-16T00:23:34;8.37;;;3.90;;
3845;SDS011;1938;50.812;7.738;2022-10-16T00:26:04;6.07;;;4.37;;
3845;SDS011;1938;50.812;7.738;2022-10-16T00:28:33;8.73;;;4.20;;
3845;SDS011;1938;50.812;7.738;2022-10-16T00:31:02;8.00;;;4.07;;
3845;SDS011;1938;50.812;7.738;2022-10-16T00:33:32;8.03;;;4.60;;
3845;SDS011;1938;50.812;7.738;2022-10-16T00:35:59;9.93;;;4.30;;
3845;SDS011;1938;50.812;7.738;2022-10-16T00:38:25;6.10;;;3.70;;
3845;SDS011;1938;50.812;7.738;2022-10-16T00:40:51;6.63;;;4.40;;
3845;SDS011;1938;50.812;7.738;2022-10-16T00:46:01;6.97;;;3.87;;
3845;SDS011;1938;50.812;7.738;2022-10-16T00:48:28;8.40;;;4.80;;
3845;SDS011;1938;50.812;7.738;2022-10-16T00:50:55;15.53;;;4.40;;
3845;SDS011;1938;50.812;7.738;2022-10-16T00:53:22;7.00;;;4.57;;
3845;SDS011;1938;50.812;7.738;2022-10-16T00:55:49;11.13;;;4.63;;
3845;SDS011;1938;50.812;7.738;2022-10-16T00:58:16;7.63;;;4.60;;
3845;SDS011;1938;50.812;7.738;2022-10-16T01:00:41;10.80;;;4.33;;
3845;SDS011;1938;50.812;7.738;2022-10-16T01:05:56;10.33;;;5.30;;
3845;SDS011;1938;50.812;7.738;2022-10-16T01:08:44;5.60;;;3.60;;
3845;SDS011;1938;50.812;7.738;2022-10-16T01:13:51;6.37;;;4.03;;
3845;SDS011;1938;50.812;7.738;2022-10-16T01:16:26;8.20;;;3.43;;
3845;SDS011;1938;50.812;7.738;2022-10-16T01:19:08;8.23;;;4.30;;
3845;SDS011;1938;50.812;7.738;2022-10-16T01:21:40;6.73;;;4.10;;
3845;SDS011;1938;50.812;7.738;2022-10-16T01:26:43;14.47;;;4.70;;
3845;SDS011;1938;50.812;7.738;2022-10-16T01:29:34;7.83;;;4.80;;
3845;SDS011;1938;50.812;7.738;2022-10-16T01:32:05;6.60;;;3.83;;
3845;SDS011;1938;50.812;7.738;2022-10-16T01:34:39;7.80;;;4.27;;
3845;SDS011;1938;50.812;7.738;2022-10-16T01:37:13;8.10;;;5.37;;
3845;SDS011;1938;50.812;7.738;2022-10-16T01:39:45;13.10;;;4.30;;
3845;SDS011;1938;50.812;7.738;2022-10-16T01:42:14;8.63;;;4.93;;
3845;SDS011;1938;50.812;7.738;2022-10-16T01:44:43;8.73;;;4.90;;
3845;SDS011;1938;50.812;7.738;2022-10-16T01:50:34;7.73;;;4.90;;
3845;SDS011;1938;50.812;7.738;2022-10-16T01:53:04;8.77;;;5.80;;
3845;SDS011;1938;50.812;7.738;2022-10-16T01:55:33;9.50;;;6.50;;
3845;SDS011;1938;50.812;7.738;2022-10-16T01:58:04;12.57;;;7.20;;
3845;SDS011;1938;50.812;7.738;2022-10-16T02:00:32;14.47;;;8.07;;
3845;SDS011;1938;50.812;7.738;2022-10-16T02:03:01;15.87;;;7.07;;
3845;SDS011;1938;50.812;7.738;2022-10-16T02:08:10;16.10;;;8.10;;
3845;SDS011;1938;50.812;7.738;2022-10-16T02:10:36;12.97;;;7.53;;
3845;SDS011;1938;50.812;7.738;2022-10-16T02:13:19;17.10;;;7.97;;
3845;SDS011;1938;50.812;7.738;2022-10-16T02:15:50;11.23;;;7.37;;
3845;SDS011;1938;50.812;7.738;2022-10-16T02:18:16;12.43;;;8.10;;
3845;SDS011;1938;50.812;7.738;2022-10-16T02:20:48;12.17;;;8.93;;
3845;SDS011;1938;50.812;7.738;2022-10-16T02:23:23;10.67;;;7.00;;
3845;SDS011;1938;50.812;7.738;2022-10-16T02:25:54;14.37;;;8.77;;
3845;SDS011;1938;50.812;7.738;2022-10-16T02:28:28;12.03;;;8.70;;
3845;SDS011;1938;50.812;7.738;2022-10-16T02:31:03;13.40;;;8.40;;
3845;SDS011;1938;50.812;7.738;2022-10-16T02:33:31;13.53;;;7.43;;
3845;SDS011;1938;50.812;7.738;2022-10-16T02:35:59;20.23;;;8.20;;
3845;SDS011;1938;50.812;7.738;2022-10-16T02:38:25;11.30;;;7.57;;
3845;SDS011;1938;50.812;7.738;2022-10-16T02:40:51;13.07;;;7.60;;
3845;SDS011;1938;50.812;7.738;2022-10-16T02:43:17;13.80;;;8.43;;
3845;SDS011;1938;50.812;7.738;2022-10-16T02:45:44;15.97;;;8.40;;
3845;SDS011;1938;50.812;7.738;2022-10-16T02:48:09;13.20;;;7.60;;
3845;SDS011;1938;50.812;7.738;2022-10-16T02:50:35;13.10;;;7.27;;
3845;SDS011;1938;50.812;7.738;2022-10-16T02:53:02;13.43;;;8.37;;
3845;SDS011;1938;50.812;7.738;2022-10-16T02:55:27;14.73;;;7.73;;
3845;SDS011;1938;50.812;7.738;2022-10-16T02:57:53;13.10;;;6.87;;
3845;SDS011;1938;50.812;7.738;2022-10-16T03:00:19;11.80;;;7.10;;
3845;SDS011;1938;50.812;7.738;2022-10-16T03:02:45;11.40;;;7.00;;
3845;SDS011;1938;50.812;7.738;2022-10-16T03:05:12;22.07;;;6.70;;
3845;SDS011;1938;50.812;7.738;2022-10-16T03:07:37;10.17;;;7.30;;
3845;SDS011;1938;50.812;7.738;2022-10-16T03:10:03;12.40;;;6.60;;
3845;SDS011;1938;50.812;7.738;2022-10-16T03:12:29;11.13;;;6.30;;
3845;SDS011;1938;50.812;7.738;2022-10-16T03:14:55;13.30;;;6.20;;
3845;SDS011;1938;50.812;7.738;2022-10-16T03:17:21;9.90;;;5.90;;
3845;SDS011;1938;50.812;7.738;2022-10-16T03:19:47;16.13;;;5.63;;
3845;SDS011;1938;50.812;7.738;2022-10-16T03:22:13;14.00;;;6.07;;
3845;SDS011;1938;50.812;7.738;2022-10-16T03:24:38;7.90;;;5.57;;
3845;SDS011;1938;50.812;7.738;2022-10-16T03:27:04;12.53;;;5.33;;
3845;SDS011;1938;50.812;7.738;2022-10-16T03:29:30;10.27;;;6.47;;
3845;SDS011;1938;50.812;7.738;2022-10-16T03:31:57;8.77;;;5.70;;
3845;SDS011;1938;50.812;7.738;2022-10-16T03:34:22;7.73;;;5.23;;
3845;SDS011;1938;50.812;7.738;2022-10-16T03:36:49;6.97;;;5.30;;
3845;SDS011;1938;50.812;7.738;2022-10-16T03:39:14;8.40;;;5.73;;
3845;SDS011;1938;50.812;7.738;2022-10-16T03:41:40;9.97;;;5.10;;
3845;SDS011;1938;50.812;7.738;2022-10-16T03:44:05;8.27;;;5.00;;
3845;SDS011;1938;50.812;7.738;2022-10-16T03:46:32;9.03;;;5.10;;
3845;SDS011;1938;50.812;7.738;2022-10-16T03:48:58;9.30;;;4.70;;
3845;SDS011;1938;50.812;7.738;2022-10-16T03:51:23;10.00;;;4.33;;
3845;SDS011;1938;50.812;7.738;2022-10-16T03:53:49;6.37;;;4.57;;
3845;SDS011;1938;50.812;7.738;2022-10-16T03:56:14;6.03;;;4.27;;
3845;SDS011;1938;50.812;7.738;2022-10-16T03:58:40;8.33;;;3.67;;
3845;SDS011;1938;50.812;7.738;2022-10-16T04:01:05;11.57;;;4.53;;
3845;SDS011;1938;50.812;7.738;2022-10-16T04:03:31;6.30;;;4.40;;
3845;SDS011;1938;50.812;7.738;2022-10-16T04:05:57;7.10;;;3.40;;
3845;SDS011;1938;50.812;7.738;2022-10-16T04:08:23;12.03;;;3.93;;
3845;SDS011;1938;50.812;7.738;2022-10-16T04:10:49;6.63;;;4.03;;
3845;SDS011;1938;50.812;7.738;2022-10-16T04:13:14;7.20;;;3.60;;
3845;SDS011;1938;50.812;7.738;2022-10-16T04:15:41;5.97;;;3.33;;
3845;SDS011;1938;50.812;7.738;2022-10-16T04:18:07;8.40;;;3.80;;
3845;SDS011;1938;50.812;7.738;2022-10-16T04:20:32;6.03;;;3.30;;
3845;SDS011;1938;50.812;7.738;2022-10-16T04:22:58;3.97;;;2.93;;
3845;SDS011;1938;50.812;7.738;2022-10-16T04:25:24;7.67;;;3.23;;
3845;SDS011;1938;50.812;7.738;2022-10-16T04:27:52;4.57;;;3.00;;
3845;SDS011;1938;50.812;7.738;2022-10-16T04:30:18;4.40;;;3.17;;
3845;SDS011;1938;50.812;7.738;2022-10-16T04:32:47;7.67;;;3.27;;
3845;SDS011;1938;50.812;7.738;2022-10-16T04:35:17;6.00;;;3.00;;
3845;SDS011;1938;50.812;7.738;2022-10-16T04:37:43;5.77;;;3.30;;
3845;SDS011;1938;50.812;7.738;2022-10-16T04:40:09;5.27;;;3.03;;
3845;SDS011;1938;50.812;7.738;2022-10-16T04:42:35;11.00;;;3.70;;
3845;SDS011;1938;50.812;7.738;2022-10-16T04:45:00;4.33;;;2.83;;
3845;SDS011;1938;50.812;7.738;2022-10-16T04:47:26;6.47;;;3.93;;
3845;SDS011;1938;50.812;7.738;2022-10-16T04:49:51;7.40;;;3.10;;
3845;SDS011;1938;50.812;7.738;2022-10-16T04:52:17;4.97;;;3.67;;
3845;SDS011;1938;50.812;7.738;2022-10-16T04:54:43;6.27;;;2.90;;
3845;SDS011;1938;50.812;7.738;2022-10-16T04:57:10;7.60;;;3.90;;
3845;SDS011;1938;50.812;7.738;2022-10-16T04:59:36;4.67;;;3.20;;
3845;SDS011;1938;50.812;7.738;2022-10-16T05:02:03;5.00;;;3.63;;
3845;SDS011;1938;50.812;7.738;2022-10-16T05:04:28;9.77;;;4.33;;
3845;SDS011;1938;50.812;7.738;2022-10-16T05:06:54;7.03;;;2.70;;
3845;SDS011;1938;50.812;7.738;2022-10-16T05:09:19;5.37;;;3.60;;
3845;SDS011;1938;50.812;7.738;2022-10-16T05:11:45;4.53;;;3.20;;
3845;SDS011;1938;50.812;7.738;2022-10-16T05:14:12;7.40;;;3.37;;
3845;SDS011;1938;50.812;7.738;2022-10-16T05:16:37;8.80;;;3.33;;
3845;SDS011;1938;50.812;7.738;2022-10-16T05:19:03;6.07;;;3.20;;
3845;SDS011;1938;50.812;7.738;2022-10-16T05:21:28;4.73;;;2.63;;
3845;SDS011;1938;50.812;7.738;2022-10-16T05:23:55;5.67;;;2.93;;
3845;SDS011;1938;50.812;7.738;2022-10-16T05:26:20;9.77;;;3.47;;
3845;SDS011;1938;50.812;7.738;2022-10-16T05:28:46;4.80;;;2.93;;
3845;SDS011;1938;50.812;7.738;2022-10-16T05:31:12;6.43;;;2.90;;
3845;SDS011;1938;50.812;7.738;2022-10-16T05:33:37;7.03;;;2.80;;
3845;SDS011;1938;50.812;7.738;2022-10-16T05:36:04;5.20;;;3.17;;
3845;SDS011;1938;50.812;7.738;2022-10-16T05:38:32;3.73;;;2.40;;
3845;SDS011;1938;50.812;7.738;2022-10-16T05:40:58;6.20;;;2.97;;
3845;SDS011;1938;50.812;7.738;2022-10-16T05:43:24;4.03;;;2.87;;
3845;SDS011;1938;50.812;7.738;2022-10-16T05:45:59;4.53;;;2.70;;
3845;SDS011;1938;50.812;7.738;2022-10-16T05:48:28;4.60;;;2.30;;
3845;SDS011;1938;50.812;7.738;2022-10-16T05:50:58;5.73;;;2.77;;
3845;SDS011;1938;50.812;7.738;2022-10-16T05:53:29;4.93;;;2.10;;
3845;SDS011;1938;50.812;7.738;2022-10-16T05:55:56;3.63;;;2.27;;
3845;SDS011;1938;50.812;7.738;2022-10-16T05:58:21;9.80;;;2.40;;
3845;SDS011;1938;50.812;7.738;2022-10-16T06:00:57;5.03;;;2.20;;
3845;SDS011;1938;50.812;7.738;2022-10-16T06:03:25;3.80;;;2.07;;
3845;SDS011;1938;50.812;7.738;2022-10-16T06:05:51;3.20;;;1.70;;
3845;SDS011;1938;50.812;7.738;2022-10-16T06:08:18;4.67;;;1.77;;
3845;SDS011;1938;50.812;7.738;2022-10-16T06:10:46;4.07;;;2.50;;
3845;SDS011;1938;50.812;7.738;2022-10-16T06:13:12;5.63;;;1.83;;
3845;SDS011;1938;50.812;7.738;2022-10-16T06:15:39;3.70;;;1.70;;
3845;SDS011;1938;50.812;7.738;2022-10-16T06:18:06;6.13;;;1.80;;
3845;SDS011;1938;50.812;7.738;2022-10-16T06:20:35;3.60;;;1.67;;
3845;SDS011;1938;50.812;7.738;2022-10-16T06:23:01;2.93;;;1.70;;
3845;SDS011;1938;50.812;7.738;2022-10-16T06:25:28;7.13;;;1.60;;
3845;SDS011;1938;50.812;7.738;2022-10-16T06:27:56;3.07;;;1.40;;
3845;SDS011;1938;50.812;7.738;2022-10-16T06:30:22;3.17;;;1.60;;
3845;SDS011;1938;50.812;7.738;2022-10-16T06:32:47;3.10;;;1.80;;
3845;SDS011;1938;50.812;7.738;2022-10-16T06:35:13;4.20;;;1.70;;
3845;SDS011;1938;50.812;7.738;2022-10-16T06:37:38;3.53;;;1.60;;
3845;SDS011;1938;50.812;7.738;2022-10-16T06:40:05;2.60;;;1.30;;
3845;SDS011;1938;50.812;7.738;2022-10-16T06:42:31;2.90;;;1.30;;
3845;SDS011;1938;50.812;7.738;2022-10-16T06:44:57;3.30;;;1.57;;
3845;SDS011;1938;50.812;7.738;2022-10-16T06:47:22;4.73;;;1.33;;
3845;SDS011;1938;50.812;7.738;2022-10-16T06:49:49;3.23;;;1.50;;
3845;SDS011;1938;50.812;7.738;2022-10-16T06:52:14;5.13;;;1.60;;
3845;SDS011;1938;50.812;7.738;2022-10-16T06:54:40;2.43;;;1.30;;
3845;SDS011;1938;50.812;7.738;2022-10-16T06:57:05;6.37;;;1.50;;
3845;SDS011;1938;50.812;7.738;2022-10-16T06:59:32;4.53;;;1.23;;
3845;SDS011;1938;50.812;7.738;2022-10-16T07:01:58;3.30;;;1.30;;
3845;SDS011;1938;50.812;7.738;2022-10-16T07:04:23;2.50;;;1.20;;
3845;SDS011;1938;50.812;7.738;2022-10-16T07:06:49;3.27;;;1.20;;
3845;SDS011;1938;50.812;7.738;2022-10-16T07:09:16;7.73;;;1.40;;
3845;SDS011;1938;50.812;7.738;2022-10-16T07:11:43;3.30;;;1.90;;
3845;SDS011;1938;50.812;7.738;2022-10-16T07:14:16;3.17;;;1.57;;
3845;SDS011;1938;50.812;7.738;2022-10-16T07:16:43;4.33;;;1.50;;
3845;SDS011;1938;50.812;7.738;2022-10-16T07:19:09;4.87;;;1.67;;
3845;SDS011;1938;50.812;7.738;2022-10-16T07:21:37;3.63;;;1.60;;
3845;SDS011;1938;50.812;7.738;2022-10-16T07:24:05;2.40;;;1.10;;
3845;SDS011;1938;50.812;7.738;2022-10-16T07:26:33;2.63;;;1.10;;
3845;SDS011;1938;50.812;7.738;2022-10-16T07:29:00;3.67;;;1.50;;
3845;SDS011;1938;50.812;7.738;2022-10-16T07:31:27;3.90;;;1.30;;
3845;SDS011;1938;50.812;7.738;2022-10-16T07:33:53;2.40;;;1.00;;
3845;SDS011;1938;50.812;7.738;2022-10-16T07:36:20;2.30;;;1.00;;
3845;SDS011;1938;50.812;7.738;2022-10-16T07:38:46;7.90;;;1.30;;
3845;SDS011;1938;50.812;7.738;2022-10-16T07:41:17;4.70;;;1.20;;
3845;SDS011;1938;50.812;7.738;2022-10-16T07:43:48;3.33;;;1.20;;
3845;SDS011;1938;50.812;7.738;2022-10-16T07:46:15;3.60;;;1.17;;
3845;SDS011;1938;50.812;7.738;2022-10-16T07:48:41;3.77;;;1.00;;
3845;SDS011;1938;50.812;7.738;2022-10-16T07:51:19;7.00;;;1.17;;
3845;SDS011;1938;50.812;7.738;2022-10-16T07:53:46;5.10;;;1.10;;
3845;SDS011;1938;50.812;7.738;2022-10-16T07:56:12;4.63;;;1.20;;
3845;SDS011;1938;50.812;7.738;2022-10-16T07:58:39;3.57;;;1.10;;
3845;SDS011;1938;50.812;7.738;2022-10-16T08:01:06;4.03;;;1.30;;
3845;SDS011;1938;50.812;7.738;2022-10-16T08:03:33;3.13;;;1.30;;
3845;SDS011;1938;50.812;7.738;2022-10-16T08:05:59;4.07;;;1.10;;
3845;SDS011;1938;50.812;7.738;2022-10-16T08:08:26;2.60;;;1.10;;
3845;SDS011;1938;50.812;7.738;2022-10-16T08:10:53;2.97;;;1.07;;
3845;SDS011;1938;50.812;7.738;2022-10-16T08:13:18;3.80;;;1.30;;
3845;SDS011;1938;50.812;7.738;2022-10-16T08:15:45;3.30;;;1.10;;
3845;SDS011;1938;50.812;7.738;2022-10-16T08:18:11;2.43;;;0.93;;
3845;SDS011;1938;50.812;7.738;2022-10-16T08:20:39;13.13;;;1.13;;
3845;SDS011;1938;50.812;7.738;2022-10-16T08:23:05;4.13;;;1.33;;
3845;SDS011;1938;50.812;7.738;2022-10-16T08:25:33;4.10;;;0.80;;
3845;SDS011;1938;50.812;7.738;2022-10-16T08:27:59;4.40;;;1.27;;
3845;SDS011;1938;50.812;7.738;2022-10-16T08:30:26;2.67;;;0.97;;
3845;SDS011;1938;50.812;7.738;2022-10-16T08:32:52;8.50;;;1.60;;
3845;SDS011;1938;50.812;7.738;2022-10-16T08:35:17;4.93;;;1.37;;
3845;SDS011;1938;50.812;7.738;2022-10-16T08:37:43;3.60;;;1.03;;
3845;SDS011;1938;50.812;7.738;2022-10-16T08:40:50;4.40;;;1.10;;
3845;SDS011;1938;50.812;7.738;2022-10-16T08:45:34;2.60;;;0.93;;
3845;SDS011;1938;50.812;7.738;2022-10-16T08:51:23;7.73;;;1.73;;
3845;SDS011;1938;50.812;7.738;2022-10-16T08:53:55;2.27;;;1.00;;
3845;SDS011;1938;50.812;7.738;2022-10-16T08:56:22;6.00;;;1.00;;
3845;SDS011;1938;50.812;7.738;2022-10-16T08:58:49;2.10;;;0.90;;
3845;SDS011;1938;50.812;7.738;2022-10-16T09:01:17;2.33;;;0.93;;
3845;SDS011;1938;50.812;7.738;2022-10-16T09:06:31;2.50;;;1.00;;
3845;SDS011;1938;50.812;7.738;2022-10-16T09:12:24;4.07;;;1.10;;
3845;SDS011;1938;50.812;7.738;2022-10-16T09:17:48;2.90;;;1.20;;
3845;SDS011;1938;50.812;7.738;2022-10-16T09:23:28;4.10;;;1.20;;
3845;SDS011;1938;50.812;7.738;2022-10-16T09:25:55;3.03;;;0.97;;
3845;SDS011;1938;50.812;7.738;2022-10-16T09:28:23;4.90;;;1.20;;
3845;SDS011;1938;50.812;7.738;2022-10-16T09:30:49;8.63;;;1.30;;
3845;SDS011;1938;50.812;7.738;2022-10-16T09:33:18;6.57;;;1.03;;
3845;SDS011;1938;50.812;7.738;2022-10-16T09:35:47;2.40;;;1.00;;
3845;SDS011;1938;50.812;7.738;2022-10-16T09:38:31;9.23;;;1.10;;
3845;SDS011;1938;50.812;7.738;2022-10-16T09:40:59;2.80;;;1.00;;
3845;SDS011;1938;50.812;7.738;2022-10-16T09:43:34;2.47;;;0.97;;
3845;SDS011;1938;50.812;7.738;2022-10-16T09:46:08;2.30;;;1.00;;
3845;SDS011;1938;50.812;7.738;2022-10-16T09:48:50;3.43;;;1.00;;
3845;SDS011;1938;50.812;7.738;2022-10-16T09:51:34;4.43;;;1.33;;
3845;SDS011;1938;50.812;7.738;2022-10-16T09:54:11;6.50;;;2.80;;
3845;SDS011;1938;50.812;7.738;2022-10-16T09:56:43;2.43;;;1.00;;
3845;SDS011;1938;50.812;7.738;2022-10-16T09:59:17;2.57;;;1.00;;
3845;SDS011;1938;50.812;7.738;2022-10-16T10:01:49;4.23;;;1.43;;
3845;SDS011;1938;50.812;7.738;2022-10-16T10:04:18;3.33;;;1.30;;
3845;SDS011;1938;50.812;7.738;2022-10-16T10:06:45;3.47;;;1.10;;
3845;SDS011;1938;50.812;7.738;2022-10-16T10:09:26;3.67;;;1.30;;
3845;SDS011;1938;50.812;7.738;2022-10-16T10:11:56;2.50;;;1.00;;
3845;SDS011;1938;50.812;7.738;2022-10-16T10:19:36;2.37;;;1.07;;
3845;SDS011;1938;50.812;7.738;2022-10-16T10:22:16;6.93;;;1.20;;
3845;SDS011;1938;50.812;7.738;2022-10-16T10:24:57;7.73;;;1.83;;
3845;SDS011;1938;50.812;7.738;2022-10-16T10:39:38;5.03;;;1.13;;
3845;SDS011;1938;50.812;7.738;2022-10-16T11:01:06;4.07;;;1.00;;
3845;SDS011;1938;50.812;7.738;2022-10-16T11:06:40;2.53;;;1.07;;
3845;SDS011;1938;50.812;7.738;2022-10-16T11:09:30;3.90;;;1.10;;
3845;SDS011;1938;50.812;7.738;2022-10-16T11:14:36;2.63;;;1.00;;
3845;SDS011;1938;50.812;7.738;2022-10-16T11:17:24;3.33;;;1.17;;
3845;SDS011;1938;50.812;7.738;2022-10-16T11:19:55;4.33;;;1.20;;
3845;SDS011;1938;50.812;7.738;2022-10-16T11:22:27;5.40;;;1.10;;
3845;SDS011;1938;50.812;7.738;2022-10-16T11:25:20;2.60;;;1.10;;
3845;SDS011;1938;50.812;7.738;2022-10-16T11:33:29;3.93;;;1.23;;
3845;SDS011;1938;50.812;7.738;2022-10-16T11:36:21;3.90;;;1.00;;
3845;SDS011;1938;50.812;7.738;2022-10-16T11:39:04;6.57;;;0.97;;
3845;SDS011;1938;50.812;7.738;2022-10-16T11:47:30;3.07;;;1.10;;
3845;SDS011;1938;50.812;7.738;2022-10-16T11:53:28;4.77;;;1.20;;
3845;SDS011;1938;50.812;7.738;2022-10-16T11:56:04;2.40;;;1.07;;
3845;SDS011;1938;50.812;7.738;2022-10-16T12:01:16;2.10;;;0.90;;
3845;SDS011;1938;50.812;7.738;2022-10-16T12:06:34;2.30;;;0.90;;
3845;SDS011;1938;50.812;7.738;2022-10-16T12:09:26;2.60;;;1.00;;
3845;SDS011;1938;50.812;7.738;2022-10-16T12:11:53;3.10;;;0.97;;
3845;SDS011;1938;50.812;7.738;2022-10-16T12:14:21;2.73;;;1.00;;
3845;SDS011;1938;50.812;7.738;2022-10-16T12:16:54;2.40;;;0.90;;
3845;SDS011;1938;50.812;7.738;2022-10-16T12:19:22;2.73;;;1.23;;
3845;SDS011;1938;50.812;7.738;2022-10-16T12:21:49;3.60;;;1.10;;
3845;SDS011;1938;50.812;7.738;2022-10-16T12:24:33;2.20;;;0.90;;
3845;SDS011;1938;50.812;7.738;2022-10-16T12:27:02;2.20;;;0.90;;
3845;SDS011;1938;50.812;7.738;2022-10-16T12:32:00;2.60;;;1.00;;
3845;SDS011;1938;50.812;7.738;2022-10-16T12:34:29;2.20;;;0.80;;
3845;SDS011;1938;50.812;7.738;2022-10-16T12:37:06;2.30;;;1.10;;
3845;SDS011;1938;50.812;7.738;2022-10-16T12:39:53;1.90;;;0.70;;
3845;SDS011;1938;50.812;7.738;2022-10-16T12:44:52;2.40;;;1.00;;
3845;SDS011;1938;50.812;7.738;2022-10-16T12:47:20;6.10;;;1.13;;
3845;SDS011;1938;50.812;7.738;2022-10-16T12:49:48;3.93;;;1.30;;
3845;SDS011;1938;50.812;7.738;2022-10-16T12:55:00;2.10;;;0.90;;
3845;SDS011;1938;50.812;7.738;2022-10-16T13:06:06;2.33;;;0.90;;
3845;SDS011;1938;50.812;7.738;2022-10-16T13:08:38;2.03;;;1.00;;
3845;SDS011;1938;50.812;7.738;2022-10-16T13:14:14;2.43;;;1.10;;
3845;SDS011;1938;50.812;7.738;2022-10-16T13:22:31;3.40;;;0.90;;
3845;SDS011;1938;50.812;7.738;2022-10-16T13:27:56;3.30;;;1.10;;
3845;SDS011;1938;50.812;7.738;2022-10-16T13:30:28;2.20;;;1.00;;
3845;SDS011;1938;50.812;7.738;2022-10-16T13:33:04;2.53;;;1.07;;
3845;SDS011;1938;50.812;7.738;2022-10-16T13:35:54;2.37;;;0.90;;
3845;SDS011;1938;50.812;7.738;2022-10-16T13:38:22;2.33;;;1.20;;
3845;SDS011;1938;50.812;7.738;2022-10-16T13:46:10;2.47;;;1.00;;
3845;SDS011;1938;50.812;7.738;2022-10-16T13:48:38;2.77;;;1.17;;
3845;SDS011;1938;50.812;7.738;2022-10-16T13:53:31;2.93;;;1.10;;
3845;SDS011;1938;50.812;7.738;2022-10-16T13:56:02;2.43;;;1.10;;
3845;SDS011;1938;50.812;7.738;2022-10-16T13:58:29;3.00;;;1.00;;
3845;SDS011;1938;50.812;7.738;2022-10-16T14:00:55;3.10;;;1.00;;
3845;SDS011;1938;50.812;7.738;2022-10-16T14:03:23;2.40;;;1.10;;
3845;SDS011;1938;50.812;7.738;2022-10-16T14:05:51;3.80;;;1.00;;
3845;SDS011;1938;50.812;7.738;2022-10-16T14:08:18;3.33;;;0.93;;
3845;SDS011;1938;50.812;7.738;2022-10-16T14:10:47;4.37;;;1.00;;
3845;SDS011;1938;50.812;7.738;2022-10-16T14:13:19;4.00;;;1.10;;
3845;SDS011;1938;50.812;7.738;2022-10-16T14:15:51;3.40;;;1.27;;
3845;SDS011;1938;50.812;7.738;2022-10-16T14:18:20;4.57;;;0.90;;
3845;SDS011;1938;50.812;7.738;2022-10-16T14:20:48;2.40;;;1.10;;
3845;SDS011;1938;50.812;7.738;2022-10-16T14:25:43;2.00;;;0.80;;
3845;SDS011;1938;50.812;7.738;2022-10-16T14:28:17;2.63;;;1.00;;
3845;SDS011;1938;50.812;7.738;2022-10-16T14:30:49;2.10;;;0.80;;
3845;SDS011;1938;50.812;7.738;2022-10-16T14:33:24;3.57;;;1.10;;
3845;SDS011;1938;50.812;7.738;2022-10-16T14:35:59;2.90;;;1.33;;
3845;SDS011;1938;50.812;7.738;2022-10-16T14:38:38;5.50;;;1.83;;
3845;SDS011;1938;50.812;7.738;2022-10-16T14:41:04;7.03;;;1.40;;
3845;SDS011;1938;50.812;7.738;2022-10-16T14:43:40;5.00;;;1.97;;
3845;SDS011;1938;50.812;7.738;2022-10-16T14:46:14;2.93;;;1.13;;
3845;SDS011;1938;50.812;7.738;2022-10-16T14:48:44;2.40;;;0.90;;
3845;SDS011;1938;50.812;7.738;2022-10-16T14:51:15;4.70;;;1.10;;
3845;SDS011;1938;50.812;7.738;2022-10-16T14:53:43;3.00;;;1.03;;
3845;SDS011;1938;50.812;7.738;2022-10-16T14:56:17;7.00;;;1.80;;
3845;SDS011;1938;50.812;7.738;2022-10-16T14:58:45;4.20;;;1.20;;
3845;SDS011;1938;50.812;7.738;2022-10-16T15:01:10;2.33;;;0.83;;
3845;SDS011;1938;50.812;7.738;2022-10-16T15:03:38;5.93;;;1.40;;
3845;SDS011;1938;50.812;7.738;2022-10-16T15:06:04;2.60;;;1.00;;
3845;SDS011;1938;50.812;7.738;2022-10-16T15:08:36;2.80;;;1.20;;
3845;SDS011;1938;50.812;7.738;2022-10-16T15:11:01;3.27;;;1.13;;
3845;SDS011;1938;50.812;7.738;2022-10-16T15:13:27;6.77;;;1.10;;
3845;SDS011;1938;50.812;7.738;2022-10-16T15:15:52;2.40;;;0.83;;
3845;SDS011;1938;50.812;7.738;2022-10-16T15:18:18;2.50;;;1.00;;
3845;SDS011;1938;50.812;7.738;2022-10-16T15:20:47;2.90;;;1.30;;
3845;SDS011;1938;50.812;7.738;2022-10-16T15:23:17;3.20;;;1.10;;
3845;SDS011;1938;50.812;7.738;2022-10-16T15:25:45;2.53;;;1.10;;
3845;SDS011;1938;50.812;7.738;2022-10-16T15:28:18;2.10;;;0.90;;
3845;SDS011;1938;50.812;7.738;2022-10-16T15:30:45;2.47;;;1.03;;
3845;SDS011;1938;50.812;7.738;2022-10-16T15:33:15;3.40;;;1.30;;
3845;SDS011;1938;50.812;7.738;2022-10-16T15:35:42;3.17;;;0.93;;
3845;SDS011;1938;50.812;7.738;2022-10-16T15:38:11;3.27;;;1.10;;
3845;SDS011;1938;50.812;7.738;2022-10-16T15:40:37;2.80;;;1.30;;
3845;SDS011;1938;50.812;7.738;2022-10-16T15:43:03;3.63;;;1.50;;
3845;SDS011;1938;50.812;7.738;2022-10-16T15:45:28;4.37;;;1.43;;
3845;SDS011;1938;50.812;7.738;2022-10-16T15:47:54;5.73;;;1.90;;
3845;SDS011;1938;50.812;7.738;2022-10-16T15:50:19;4.63;;;1.90;;
3845;SDS011;1938;50.812;7.738;2022-10-16T15:52:46;7.03;;;1.50;;
3845;SDS011;1938;50.812;7.738;2022-10-16T15:55:12;3.10;;;1.40;;
3845;SDS011;1938;50.812;7.738;2022-10-16T15:57:39;2.50;;;1.00;;
3845;SDS011;1938;50.812;7.738;2022-10-16T16:00:08;4.83;;;1.10;;
3845;SDS011;1938;50.812;7.738;2022-10-16T16:02:35;4.03;;;1.60;;
3845;SDS011;1938;50.812;7.738;2022-10-16T16:05:02;3.53;;;1.30;;
3845;SDS011;1938;50.812;7.738;2022-10-16T16:07:28;7.57;;;1.40;;
3845;SDS011;1938;50.812;7.738;2022-10-16T16:09:56;3.00;;;1.20;;
3845;SDS011;1938;50.812;7.738;2022-10-16T16:12:22;4.20;;;1.40;;
3845;SDS011;1938;50.812;7.738;2022-10-16T16:14:48;5.50;;;1.27;;
3845;SDS011;1938;50.812;7.738;2022-10-16T16:17:15;4.87;;;1.00;;
3845;SDS011;1938;50.812;7.738;2022-10-16T16:19:40;9.13;;;1.40;;
3845;SDS011;1938;50.812;7.738;2022-10-16T16:22:06;4.33;;;2.70;;
3845;SDS011;1938;50.812;7.738;2022-10-16T16:24:31;4.97;;;2.40;;
3845;SDS011;1938;50.812;7.738;2022-10-16T16:26:57;11.67;;;1.83;;
3845;SDS011;1938;50.812;7.738;2022-10-16T16:29:22;4.23;;;2.10;;
3845;SDS011;1938;50.812;7.738;2022-10-16T16:31:48;4.10;;;2.23;;
3845;SDS011;1938;50.812;7.738;2022-10-16T16:34:13;4.40;;;1.33;;
3845;SDS011;1938;50.812;7.738;2022-10-16T16:36:39;4.63;;;1.30;;
3845;SDS011;1938;50.812;7.738;2022-10-16T16:39:05;2.80;;;1.07;;
3845;SDS011;1938;50.812;7.738;2022-10-16T16:41:32;3.53;;;1.10;;
3845;SDS011;1938;50.812;7.738;2022-10-16T16:44:02;2.70;;;1.17;;
3845;SDS011;1938;50.812;7.738;2022-10-16T16:46:30;5.73;;;1.17;;
3845;SDS011;1938;50.812;7.738;2022-10-16T16:48:57;3.27;;;1.40;;
3845;SDS011;1938;50.812;7.738;2022-10-16T16:51:23;3.70;;;1.23;;
3845;SDS011;1938;50.812;7.738;2022-10-16T16:53:50;2.63;;;1.17;;
3845;SDS011;1938;50.812;7.738;2022-10-16T16:56:19;3.00;;;1.40;;
3845;SDS011;1938;50.812;7.738;2022-10-16T16:58:46;3.10;;;1.60;;
3845;SDS011;1938;50.812;7.738;2022-10-16T17:01:16;4.50;;;1.30;;
3845;SDS011;1938;50.812;7.738;2022-10-16T17:03:43;4.20;;;1.20;;
3845;SDS011;1938;50.812;7.738;2022-10-16T17:06:09;3.47;;;1.30;;
3845;SDS011;1938;50.812;7.738;2022-10-16T17:08:37;20.27;;;2.80;;
3845;SDS011;1938;50.812;7.738;2022-10-16T17:11:04;4.60;;;2.37;;
3845;SDS011;1938;50.812;7.738;2022-10-16T17:13:32;3.00;;;1.40;;
3845;SDS011;1938;50.812;7.738;2022-10-16T17:16:01;7.73;;;1.83;;
3845;SDS011;1938;50.812;7.738;2022-10-16T17:18:27;5.17;;;1.40;;
3845;SDS011;1938;50.812;7.738;2022-10-16T17:20:53;3.47;;;1.47;;
3845;SDS011;1938;50.812;7.738;2022-10-16T17:23:18;2.73;;;1.10;;
3845;SDS011;1938;50.812;7.738;2022-10-16T17:25:44;4.30;;;1.70;;
3845;SDS011;1938;50.812;7.738;2022-10-16T17:28:11;3.33;;;1.07;;
3845;SDS011;1938;50.812;7.738;2022-10-16T17:30:38;4.37;;;1.50;;
3845;SDS011;1938;50.812;7.738;2022-10-16T17:33:05;3.93;;;1.63;;
3845;SDS011;1938;50.812;7.738;2022-10-16T17:35:38;3.17;;;1.40;;
3845;SDS011;1938;50.812;7.738;2022-10-16T17:38:08;6.90;;;1.47;;